createdAt,value
2019-03-28T00:00:18.646Z,22.87
2019-03-28T00:04:21.756Z,24.17
2019-03-28T00:08:26.202Z,26.73
2019-03-28T00:12:29.303Z,22.10
2019-03-28T00:16:32.315Z,24.40
2019-03-28T00:20:35.452Z,19.70
2019-03-28T00:24:43.383Z,21.27
2019-03-28T00:28:46.388Z,20.77
2019-03-28T00:32:49.398Z,17.23
2019-03-28T00:36:52.388Z,21.93
2019-03-28T00:40:55.395Z,22.00
2019-03-28T00:44:58.411Z,24.43
2019-03-28T00:49:01.600Z,28.77
2019-03-28T00:53:04.603Z,29.50
2019-03-28T00:57:07.659Z,28.37
2019-03-28T01:01:10.655Z,22.63
2019-03-28T01:05:13.779Z,19.23
2019-03-28T01:09:18.212Z,23.13
2019-03-28T01:13:21.223Z,30.40
2019-03-28T01:17:24.228Z,23.37
2019-03-28T01:21:27.249Z,23.50
2019-03-28T01:25:30.236Z,22.83
2019-03-28T01:29:33.239Z,26.43
2019-03-28T01:33:36.228Z,27.50
2019-03-28T01:37:39.238Z,23.63
2019-03-28T01:41:42.243Z,34.37
2019-03-28T01:45:45.240Z,20.73
2019-03-28T01:49:48.264Z,30.97
2019-03-28T01:53:51.263Z,20.53
2019-03-28T01:57:54.275Z,30.40
2019-03-28T02:01:57.283Z,27.43
2019-03-28T02:06:00.284Z,26.47
2019-03-28T02:10:05.768Z,27.30
2019-03-28T02:14:08.776Z,24.60
2019-03-28T02:18:11.800Z,28.53
2019-03-28T02:22:14.823Z,27.93
2019-03-28T02:26:17.832Z,21.07
2019-03-28T02:30:31.937Z,19.30
2019-03-28T02:34:35.024Z,23.07
2019-03-28T02:38:38.012Z,25.73
2019-03-28T02:42:41.048Z,22.90
2019-03-28T02:46:44.059Z,21.70
2019-03-28T02:50:47.076Z,20.00
2019-03-28T02:54:50.090Z,18.30
2019-03-28T02:58:53.124Z,26.17
2019-03-28T03:02:56.151Z,22.17
2019-03-28T03:06:59.153Z,25.17
2019-03-28T03:11:03.099Z,24.93
2019-03-28T03:15:06.705Z,23.03
2019-03-28T03:19:09.752Z,20.10
2019-03-28T03:23:12.881Z,21.40
2019-03-28T03:27:15.886Z,23.93
2019-03-28T03:31:21.145Z,22.07
2019-03-28T03:35:24.915Z,27.73
2019-03-28T03:39:27.915Z,20.13
2019-03-28T03:43:30.933Z,26.87
2019-03-28T03:47:33.967Z,28.20
2019-03-28T03:51:37.068Z,24.20
2019-03-28T03:55:40.077Z,24.60
2019-03-28T03:59:43.109Z,23.43
2019-03-28T04:03:46.134Z,32.30
2019-03-28T04:07:49.145Z,23.47
2019-03-28T04:11:53.184Z,26.53
2019-03-28T04:15:56.187Z,21.87
2019-03-28T04:19:59.203Z,26.67
2019-03-28T04:24:02.207Z,25.43
2019-03-28T04:28:05.215Z,23.03
2019-03-28T04:32:08.220Z,20.20
2019-03-28T04:36:11.268Z,24.73
2019-03-28T04:40:14.387Z,20.13
2019-03-28T04:44:17.399Z,21.10
2019-03-28T04:48:20.690Z,23.57
2019-03-28T04:52:23.700Z,29.27
2019-03-28T04:56:26.707Z,21.43
2019-03-28T05:00:29.738Z,24.57
2019-03-28T05:04:32.746Z,21.33
2019-03-28T05:08:35.765Z,20.57
2019-03-28T05:12:38.971Z,20.43
2019-03-28T05:16:41.981Z,27.40
2019-03-28T05:20:44.991Z,27.80
2019-03-28T05:24:48.005Z,33.80
2019-03-28T05:28:57.433Z,26.90
2019-03-28T05:32:55.939Z,25.97
2019-03-28T05:37:11.044Z,24.30
2019-03-28T05:41:17.196Z,22.10
2019-03-28T05:45:19.013Z,26.47
2019-03-28T05:49:22.127Z,28.97
2019-03-28T05:53:25.239Z,22.43
2019-03-28T05:57:28.245Z,30.13
2019-03-28T06:01:31.248Z,28.10
2019-03-28T06:05:34.615Z,27.30
2019-03-28T06:09:40.105Z,26.10
2019-03-28T06:13:43.905Z,25.30
2019-03-28T06:17:46.924Z,21.83
2019-03-28T06:21:49.927Z,28.27
2019-03-28T06:25:52.935Z,25.27
2019-03-28T06:29:55.954Z,27.70
2019-03-28T06:33:59.078Z,28.50
2019-03-28T06:38:02.105Z,25.00
2019-03-28T06:42:05.106Z,25.90
2019-03-28T06:46:08.151Z,25.43
2019-03-28T06:50:11.357Z,29.27
2019-03-28T06:54:14.373Z,31.03
2019-03-28T06:58:17.382Z,27.30
2019-03-28T07:02:21.872Z,31.10
2019-03-28T07:06:25.232Z,31.73
2019-03-28T07:10:28.243Z,29.60
2019-03-28T07:14:33.288Z,33.03
2019-03-28T07:18:36.290Z,34.77
2019-03-28T07:22:39.308Z,31.63
2019-03-28T07:26:42.303Z,38.83
2019-03-28T07:30:45.431Z,32.17
2019-03-28T07:34:48.723Z,32.53
2019-03-28T07:38:51.731Z,40.57
2019-03-28T07:42:54.755Z,38.30
2019-03-28T07:46:57.764Z,30.67
2019-03-28T07:51:00.776Z,30.77
2019-03-28T07:55:05.633Z,30.10
2019-03-28T07:59:08.908Z,40.53
2019-03-28T08:03:11.914Z,30.00
2019-03-28T08:07:14.920Z,30.53
2019-03-28T08:11:23.827Z,31.80
2019-03-28T08:15:27.427Z,31.23
2019-03-28T08:19:30.424Z,28.67
2019-03-28T08:23:35.371Z,29.97
2019-03-28T08:27:38.412Z,29.37
2019-03-28T08:31:43.326Z,30.77
2019-03-28T08:35:47.263Z,33.43
2019-03-28T08:39:50.285Z,31.93
2019-03-28T08:43:53.283Z,46.00
2019-03-28T08:47:56.277Z,31.40
2019-03-28T08:51:59.347Z,27.77
2019-03-28T08:56:02.377Z,27.87
2019-03-28T09:00:08.599Z,28.80
2019-03-28T09:04:11.605Z,28.10
2019-03-28T09:08:14.664Z,24.87
2019-03-28T09:12:17.651Z,27.17
2019-03-28T09:16:20.975Z,25.53
2019-03-28T09:20:24.006Z,37.00
2019-03-28T09:24:27.003Z,25.83
2019-03-28T09:28:30.082Z,30.13
2019-03-28T09:32:33.518Z,27.87
2019-03-28T09:36:36.535Z,26.27
2019-03-28T09:40:39.532Z,22.50
2019-03-28T09:44:42.546Z,25.67
2019-03-28T09:48:45.559Z,25.47
2019-03-28T09:52:48.570Z,29.63
2019-03-28T09:56:51.616Z,25.93
2019-03-28T10:01:02.679Z,23.23
2019-03-28T10:04:59.588Z,23.27
2019-03-28T10:09:04.709Z,25.63
2019-03-28T10:13:07.707Z,25.67
2019-03-28T10:17:12.441Z,23.23
2019-03-28T10:21:15.462Z,19.33
2019-03-28T10:25:18.465Z,19.97
2019-03-28T10:29:23.375Z,21.70
2019-03-28T10:33:26.420Z,20.83
2019-03-28T10:37:29.412Z,24.23
2019-03-28T10:41:32.422Z,19.60
2019-03-28T10:45:35.447Z,18.80
2019-03-28T10:49:38.453Z,18.50
2019-03-28T10:53:41.472Z,18.77
2019-03-28T10:57:44.503Z,19.20
2019-03-28T11:01:50.478Z,17.23
2019-03-28T11:05:52.414Z,16.50
2019-03-28T11:09:55.442Z,12.83
2019-03-28T11:13:58.452Z,14.73
2019-03-28T11:18:03.396Z,11.60
2019-03-28T11:22:06.469Z,10.50
2019-03-28T11:26:10.320Z,13.00
2019-03-28T11:30:13.553Z,14.57
2019-03-28T11:34:16.632Z,12.30
2019-03-28T11:38:19.630Z,14.47
2019-03-28T11:42:22.656Z,13.13
2019-03-28T11:46:25.753Z,13.43
2019-03-28T11:50:28.745Z,14.77
2019-03-28T11:54:31.767Z,16.27
2019-03-28T11:58:34.766Z,16.07
2019-03-28T12:02:37.780Z,14.73
2019-03-28T12:06:40.777Z,14.53
2019-03-28T12:10:43.808Z,14.50
2019-03-28T12:14:46.819Z,15.57
2019-03-28T12:18:51.024Z,13.23
2019-03-28T12:22:56.098Z,13.20
2019-03-28T12:26:58.928Z,14.20
2019-03-28T12:31:01.959Z,14.73
2019-03-28T12:35:05.985Z,14.80
2019-03-28T12:39:08.979Z,14.40
2019-03-28T12:43:11.990Z,15.57
2019-03-28T12:47:14.992Z,14.73
2019-03-28T12:51:17.984Z,15.60
2019-03-28T12:55:20.999Z,14.70
2019-03-28T12:59:24.000Z,14.60
2019-03-28T13:03:29.852Z,15.33
2019-03-28T13:07:31.908Z,13.27
2019-03-28T13:11:34.919Z,13.90
2019-03-28T13:15:37.936Z,15.63
2019-03-28T13:19:41.564Z,9.50
2019-03-28T13:23:44.604Z,11.17
2019-03-28T13:27:47.615Z,12.10
2019-03-28T13:31:50.646Z,9.40
2019-03-28T13:35:53.683Z,11.00
2019-03-28T13:39:56.817Z,10.00
2019-03-28T13:43:59.791Z,8.17
2019-03-28T13:48:02.900Z,8.83
2019-03-28T13:52:07.003Z,9.87
2019-03-28T13:56:10.024Z,10.80
2019-03-28T14:00:13.615Z,8.97
2019-03-28T14:04:16.624Z,7.17
2019-03-28T14:08:19.625Z,7.67
2019-03-28T14:12:23.442Z,7.50
2019-03-28T14:16:26.577Z,5.73
2019-03-28T14:20:30.510Z,9.80
2019-03-28T14:24:33.515Z,5.97
2019-03-28T14:28:36.547Z,6.67
2019-03-28T14:32:52.637Z,7.93
2019-03-28T14:36:44.598Z,5.57
2019-03-28T14:40:47.603Z,6.80
2019-03-28T14:44:50.704Z,6.80
2019-03-28T14:48:53.746Z,6.70
2019-03-28T14:52:56.793Z,7.40
2019-03-28T14:57:00.967Z,5.43
2019-03-28T15:01:04.180Z,9.80
2019-03-28T15:05:08.117Z,5.77
2019-03-28T15:09:11.156Z,7.87
2019-03-28T15:13:14.257Z,7.43
2019-03-28T15:17:17.300Z,9.77
2019-03-28T15:21:21.662Z,8.97
2019-03-28T15:25:24.678Z,11.33
2019-03-28T15:29:27.676Z,11.63
2019-03-28T15:33:39.433Z,5.37
2019-03-28T15:37:35.607Z,6.70
2019-03-28T15:41:38.629Z,6.10
2019-03-28T15:45:41.666Z,7.07
2019-03-28T15:49:44.707Z,6.00
2019-03-28T15:53:47.703Z,8.80
2019-03-28T15:57:50.702Z,5.50
2019-03-28T16:01:54.747Z,5.97
2019-03-28T16:05:58.798Z,8.30
2019-03-28T16:10:05.419Z,5.13
2019-03-28T16:14:08.457Z,6.83
2019-03-28T16:18:11.551Z,7.60
2019-03-28T16:22:15.791Z,7.77
2019-03-28T16:26:18.852Z,11.93
2019-03-28T16:30:33.322Z,7.90
2019-03-28T16:34:36.330Z,7.20
2019-03-28T16:38:39.359Z,6.47
2019-03-28T16:42:42.391Z,6.87
2019-03-28T16:46:45.443Z,9.80
2019-03-28T16:50:48.520Z,6.37
2019-03-28T16:54:51.713Z,7.97
2019-03-28T16:58:55.555Z,7.37
2019-03-28T17:02:58.767Z,5.37
2019-03-28T17:07:01.972Z,6.27
2019-03-28T17:11:05.371Z,5.97
2019-03-28T17:15:09.998Z,6.80
2019-03-28T17:19:13.135Z,6.73
2019-03-28T17:23:17.734Z,6.33
2019-03-28T17:27:20.731Z,7.30
2019-03-28T17:31:23.757Z,6.50
2019-03-28T17:35:26.765Z,7.70
2019-03-28T17:39:29.814Z,9.10
2019-03-28T17:43:32.816Z,8.20
2019-03-28T17:47:37.055Z,8.67
2019-03-28T17:51:40.595Z,8.53
2019-03-28T17:55:43.835Z,9.50
2019-03-28T17:59:48.234Z,8.00
2019-03-28T18:03:51.267Z,7.87
2019-03-28T18:07:54.296Z,8.50
2019-03-28T18:11:57.386Z,10.57
2019-03-28T18:16:00.397Z,10.60
2019-03-28T18:20:04.906Z,9.40
2019-03-28T18:24:08.763Z,10.73
2019-03-28T18:28:11.821Z,15.23
2019-03-28T18:32:15.035Z,11.77
2019-03-28T18:36:18.202Z,12.97
2019-03-28T18:40:21.213Z,11.77
2019-03-28T18:44:24.323Z,13.10
2019-03-28T18:48:34.402Z,13.67
2019-03-28T18:52:32.424Z,16.23
2019-03-28T18:56:35.513Z,15.23
2019-03-28T19:00:38.769Z,14.60
2019-03-28T19:04:43.553Z,15.13
2019-03-28T19:08:48.768Z,14.27
2019-03-28T19:12:51.788Z,16.93
2019-03-28T19:16:54.792Z,14.93
2019-03-28T19:20:57.802Z,16.23
2019-03-28T19:25:04.773Z,17.70
2019-03-28T19:29:10.879Z,17.90
2019-03-28T19:33:14.726Z,16.50
2019-03-28T19:37:22.780Z,16.53
2019-03-28T19:41:25.459Z,17.57
2019-03-28T19:45:31.476Z,16.50
2019-03-28T19:49:34.545Z,17.17
2019-03-28T19:53:37.588Z,15.20
2019-03-28T19:57:40.604Z,14.53
2019-03-28T20:01:43.670Z,17.27
2019-03-28T20:05:48.297Z,18.03
2019-03-28T20:09:51.678Z,16.10
2019-03-28T20:13:54.696Z,19.73
2019-03-28T20:17:57.700Z,19.70
2019-03-28T20:22:00.819Z,18.47
2019-03-28T20:26:05.148Z,22.57
2019-03-28T20:30:08.923Z,17.53
2019-03-28T20:34:11.988Z,17.97
2019-03-28T20:38:15.093Z,15.03
2019-03-28T20:42:18.226Z,16.03
2019-03-28T20:46:21.428Z,15.20
2019-03-28T20:50:24.724Z,14.10
2019-03-28T20:54:27.879Z,16.37
2019-03-28T20:58:30.967Z,18.90
2019-03-28T21:02:34.067Z,12.43
2019-03-28T21:06:37.168Z,15.70
2019-03-28T21:10:43.185Z,18.70
2019-03-28T21:14:46.195Z,13.90
2019-03-28T21:18:49.207Z,13.90
2019-03-28T21:22:52.218Z,16.70
2019-03-28T21:26:55.914Z,14.33
2019-03-28T21:31:04.408Z,15.53
2019-03-28T21:35:08.227Z,15.27
2019-03-28T21:39:11.252Z,13.47
2019-03-28T21:43:14.260Z,13.87
2019-03-28T21:47:17.283Z,14.93
2019-03-28T21:51:20.454Z,16.97
2019-03-28T21:55:23.488Z,15.77
2019-03-28T21:59:26.556Z,14.10
2019-03-28T22:03:29.660Z,18.53
2019-03-28T22:07:32.757Z,18.43
2019-03-28T22:11:35.770Z,20.00
2019-03-28T22:15:38.754Z,17.70
2019-03-28T22:19:41.755Z,16.60
2019-03-28T22:23:46.715Z,16.27
2019-03-28T22:27:50.207Z,16.03
2019-03-28T22:31:53.220Z,18.80
2019-03-28T22:35:56.256Z,18.03
2019-03-28T22:39:59.295Z,18.33
2019-03-28T22:44:02.530Z,16.40
2019-03-28T22:48:11.072Z,17.63
2019-03-28T22:52:10.460Z,18.60
2019-03-28T22:56:13.468Z,26.90
2019-03-28T23:00:18.930Z,19.80
2019-03-28T23:04:22.314Z,18.80
2019-03-28T23:08:25.332Z,19.73
2019-03-28T23:12:28.347Z,19.40
2019-03-28T23:16:31.351Z,20.80
2019-03-28T23:20:34.408Z,19.33
2019-03-28T23:24:39.070Z,17.67
2019-03-28T23:28:44.217Z,17.10
2019-03-28T23:32:47.891Z,14.40
2019-03-28T23:36:50.943Z,14.90
2019-03-28T23:40:53.949Z,14.73
2019-03-28T23:44:57.043Z,15.17
2019-03-28T23:49:00.066Z,15.90
2019-03-28T23:53:03.061Z,15.10
2019-03-28T23:57:06.075Z,14.67
